Airfield :
LOGIN :

Register | Disclaimer

   EN    FR    IT 

 










Legend :    VFR   Marginal VFR   IFR   Intensive IFR   Very Intensive IFR
Visi :
Ceiling :
>= 8 km
>= 3000ft
5 to 8 km
1000 to 3000 ft
1500m to 5 km
500 to 1000 ft
800 to 1500m
200 to 500 ft
< 800m
< 200 ft
Symbols :   Thunderstorms  Fog  Heavy snow  Heavy precipitations  Wind > 20 kt
SIGMETs :     Misc.  Thunderstorms  Icing  Turbulence  Mountain Waves  Volcanic Ashes






- Airport Elevation : 45 ft
- IATA code : CEG


EGNR - Hawarden Chester

CURRENT METAR :
  • 221420Z 25006KT 220V300 9999 VCSH SCT018 SCT034 11/07 Q1007

EXPIRED METARs :
  • 221350Z 28006KT 250V340 9999 -SHRA SCT018 SCT041 10/07 Q1007
  • 221320Z 29007KT 250V340 9000 -SHRA SCT014 SCT033 11/07 Q1007
  • 221250Z 25008KT 210V330 9999 VCSH SCT014 SCT035 12/07 Q1007
  • 221220Z 25007KT 220V300 9999 VCSH SCT014 SCT035 12/08 Q1007
  • 221150Z 25008KT 230V310 9999 VCSH SCT014 SCT046 12/07 Q1007

TAF TAF EGNR
Valid from the 22 at 15:00 until the 22 at 19:00 UTC


221354Z 2215/2219 24009KT 9999 SCT035



MET'MAP, your aeronautical weather chart ! - Copyright ORBIFLY December 2007 - Disclaimer

ORBIFLY MET'MAP TEAM :

Programming & Development : Alexandra Zaïnal
Concept & original design : Baudouin d'Aumeries
Assistance for programming : Marc-Olivier Méhu
Technical & hardware support : Manuel Goepfert

Contact : metmap@orbifly.com




SOURCES & CREDITS :

   NOAA